sensor_id;sensor_type;location;lat;lon;timestamp;P1;durP1;ratioP1;P2;durP2;ratioP2
62696;SDS011;48761;42.680;23.312;2023-05-24T00:01:21;14.00;;;8.20;;
62696;SDS011;48761;42.680;23.312;2023-05-24T00:03:47;13.30;;;8.27;;
62696;SDS011;48761;42.680;23.312;2023-05-24T00:06:13;11.95;;;7.85;;
62696;SDS011;48761;42.680;23.312;2023-05-24T00:08:39;16.55;;;7.75;;
62696;SDS011;48761;42.680;23.312;2023-05-24T00:11:05;13.57;;;8.50;;
62696;SDS011;48761;42.680;23.312;2023-05-24T00:13:31;16.75;;;7.60;;
62696;SDS011;48761;42.680;23.312;2023-05-24T00:15:57;16.85;;;8.23;;
62696;SDS011;48761;42.680;23.312;2023-05-24T00:18:25;11.23;;;7.60;;
62696;SDS011;48761;42.680;23.312;2023-05-24T00:20:51;14.38;;;8.15;;
62696;SDS011;48761;42.680;23.312;2023-05-24T00:23:17;11.80;;;8.20;;
62696;SDS011;48761;42.680;23.312;2023-05-24T00:25:43;14.65;;;8.35;;
62696;SDS011;48761;42.680;23.312;2023-05-24T00:28:09;11.73;;;7.72;;
62696;SDS011;48761;42.680;23.312;2023-05-24T00:30:35;17.48;;;8.35;;
62696;SDS011;48761;42.680;23.312;2023-05-24T00:33:01;14.38;;;8.10;;
62696;SDS011;48761;42.680;23.312;2023-05-24T00:35:27;13.68;;;8.00;;
62696;SDS011;48761;42.680;23.312;2023-05-24T00:37:52;12.88;;;8.02;;
62696;SDS011;48761;42.680;23.312;2023-05-24T00:40:18;13.55;;;7.93;;
62696;SDS011;48761;42.680;23.312;2023-05-24T00:42:44;11.63;;;7.70;;
62696;SDS011;48761;42.680;23.312;2023-05-24T00:45:10;11.95;;;7.35;;
62696;SDS011;48761;42.680;23.312;2023-05-24T00:47:36;15.73;;;7.50;;
62696;SDS011;48761;42.680;23.312;2023-05-24T00:50:02;12.40;;;7.63;;
62696;SDS011;48761;42.680;23.312;2023-05-24T00:52:28;10.45;;;7.25;;
62696;SDS011;48761;42.680;23.312;2023-05-24T00:54:55;16.98;;;8.02;;
62696;SDS011;48761;42.680;23.312;2023-05-24T00:57:21;11.65;;;7.22;;
62696;SDS011;48761;42.680;23.312;2023-05-24T00:59:47;13.93;;;7.97;;
62696;SDS011;48761;42.680;23.312;2023-05-24T01:02:13;11.50;;;7.30;;
62696;SDS011;48761;42.680;23.312;2023-05-24T01:04:38;11.70;;;7.60;;
62696;SDS011;48761;42.680;23.312;2023-05-24T01:07:08;11.32;;;7.07;;
62696;SDS011;48761;42.680;23.312;2023-05-24T01:15:43;9.90;;;7.13;;
62696;SDS011;48761;42.680;23.312;2023-05-24T01:18:19;15.38;;;7.32;;
62696;SDS011;48761;42.680;23.312;2023-05-24T01:20:52;11.65;;;7.78;;
62696;SDS011;48761;42.680;23.312;2023-05-24T01:29:31;14.05;;;9.38;;
62696;SDS011;48761;42.680;23.312;2023-05-24T01:31:58;17.30;;;9.35;;
62696;SDS011;48761;42.680;23.312;2023-05-24T01:34:24;17.00;;;9.45;;
62696;SDS011;48761;42.680;23.312;2023-05-24T01:36:50;16.20;;;10.85;;
62696;SDS011;48761;42.680;23.312;2023-05-24T01:39:16;14.15;;;7.57;;
62696;SDS011;48761;42.680;23.312;2023-05-24T01:46:46;11.63;;;7.22;;
62696;SDS011;48761;42.680;23.312;2023-05-24T01:49:22;15.77;;;7.72;;
62696;SDS011;48761;42.680;23.312;2023-05-24T01:51:59;14.20;;;7.53;;
62696;SDS011;48761;42.680;23.312;2023-05-24T01:54:32;11.10;;;7.53;;
62696;SDS011;48761;42.680;23.312;2023-05-24T01:57:04;14.15;;;6.65;;
62696;SDS011;48761;42.680;23.312;2023-05-24T01:59:33;9.23;;;7.00;;
62696;SDS011;48761;42.680;23.312;2023-05-24T02:02:00;12.77;;;7.85;;
62696;SDS011;48761;42.680;23.312;2023-05-24T02:04:26;11.82;;;6.63;;
62696;SDS011;48761;42.680;23.312;2023-05-24T02:06:53;7.85;;;6.85;;
62696;SDS011;48761;42.680;23.312;2023-05-24T02:09:19;10.32;;;7.07;;
62696;SDS011;48761;42.680;23.312;2023-05-24T02:11:44;10.73;;;6.53;;
62696;SDS011;48761;42.680;23.312;2023-05-24T02:14:10;12.30;;;7.30;;
62696;SDS011;48761;42.680;23.312;2023-05-24T02:16:36;12.32;;;7.28;;
62696;SDS011;48761;42.680;23.312;2023-05-24T02:19:02;11.73;;;6.97;;
62696;SDS011;48761;42.680;23.312;2023-05-24T02:21:28;11.30;;;7.07;;
62696;SDS011;48761;42.680;23.312;2023-05-24T02:23:54;11.07;;;6.50;;
62696;SDS011;48761;42.680;23.312;2023-05-24T02:26:20;8.93;;;6.45;;
62696;SDS011;48761;42.680;23.312;2023-05-24T02:28:46;9.32;;;6.72;;
62696;SDS011;48761;42.680;23.312;2023-05-24T02:31:11;9.63;;;6.68;;
62696;SDS011;48761;42.680;23.312;2023-05-24T02:33:37;11.27;;;6.82;;
62696;SDS011;48761;42.680;23.312;2023-05-24T02:36:03;13.23;;;7.60;;
62696;SDS011;48761;42.680;23.312;2023-05-24T02:38:29;10.07;;;7.25;;
62696;SDS011;48761;42.680;23.312;2023-05-24T02:40:55;9.15;;;6.15;;
62696;SDS011;48761;42.680;23.312;2023-05-24T02:43:21;10.32;;;6.78;;
62696;SDS011;48761;42.680;23.312;2023-05-24T02:45:47;16.88;;;7.20;;
62696;SDS011;48761;42.680;23.312;2023-05-24T02:48:13;13.45;;;7.53;;
62696;SDS011;48761;42.680;23.312;2023-05-24T02:50:39;18.52;;;7.72;;
62696;SDS011;48761;42.680;23.312;2023-05-24T02:53:05;13.27;;;8.27;;
62696;SDS011;48761;42.680;23.312;2023-05-24T02:55:31;15.32;;;8.60;;
62696;SDS011;48761;42.680;23.312;2023-05-24T02:57:56;16.88;;;8.27;;
62696;SDS011;48761;42.680;23.312;2023-05-24T03:00:22;11.00;;;7.90;;
62696;SDS011;48761;42.680;23.312;2023-05-24T03:02:48;19.70;;;9.25;;
62696;SDS011;48761;42.680;23.312;2023-05-24T03:05:14;11.88;;;8.05;;
62696;SDS011;48761;42.680;23.312;2023-05-24T03:07:40;13.95;;;8.35;;
62696;SDS011;48761;42.680;23.312;2023-05-24T03:10:06;16.60;;;11.13;;
62696;SDS011;48761;42.680;23.312;2023-05-24T03:12:32;16.63;;;10.13;;
62696;SDS011;48761;42.680;23.312;2023-05-24T03:14:58;12.93;;;7.88;;
62696;SDS011;48761;42.680;23.312;2023-05-24T03:17:24;25.80;;;15.52;;
62696;SDS011;48761;42.680;23.312;2023-05-24T03:19:50;15.73;;;10.48;;
62696;SDS011;48761;42.680;23.312;2023-05-24T03:22:16;11.98;;;8.60;;
62696;SDS011;48761;42.680;23.312;2023-05-24T03:24:41;19.13;;;10.15;;
62696;SDS011;48761;42.680;23.312;2023-05-24T03:27:07;15.13;;;8.55;;
62696;SDS011;48761;42.680;23.312;2023-05-24T03:29:33;14.25;;;8.70;;
62696;SDS011;48761;42.680;23.312;2023-05-24T03:31:59;13.32;;;7.88;;
62696;SDS011;48761;42.680;23.312;2023-05-24T03:34:25;14.98;;;7.93;;
62696;SDS011;48761;42.680;23.312;2023-05-24T03:36:51;13.48;;;7.00;;
62696;SDS011;48761;42.680;23.312;2023-05-24T03:39:17;10.68;;;7.22;;
62696;SDS011;48761;42.680;23.312;2023-05-24T03:41:43;13.32;;;7.90;;
62696;SDS011;48761;42.680;23.312;2023-05-24T03:44:09;12.75;;;6.93;;
62696;SDS011;48761;42.680;23.312;2023-05-24T03:46:34;11.90;;;8.45;;
62696;SDS011;48761;42.680;23.312;2023-05-24T03:49:00;15.10;;;7.28;;
62696;SDS011;48761;42.680;23.312;2023-05-24T03:51:26;14.48;;;7.47;;
62696;SDS011;48761;42.680;23.312;2023-05-24T03:53:52;15.57;;;8.90;;
62696;SDS011;48761;42.680;23.312;2023-05-24T03:56:18;16.58;;;10.02;;
62696;SDS011;48761;42.680;23.312;2023-05-24T03:58:44;21.15;;;10.05;;
62696;SDS011;48761;42.680;23.312;2023-05-24T04:01:10;16.75;;;9.45;;
62696;SDS011;48761;42.680;23.312;2023-05-24T04:03:36;17.17;;;8.23;;
62696;SDS011;48761;42.680;23.312;2023-05-24T04:06:01;13.38;;;7.78;;
62696;SDS011;48761;42.680;23.312;2023-05-24T04:08:27;23.98;;;8.52;;
62696;SDS011;48761;42.680;23.312;2023-05-24T04:10:53;13.75;;;8.10;;
62696;SDS011;48761;42.680;23.312;2023-05-24T04:13:19;10.25;;;7.57;;
62696;SDS011;48761;42.680;23.312;2023-05-24T04:15:45;17.17;;;8.38;;
62696;SDS011;48761;42.680;23.312;2023-05-24T04:18:11;13.65;;;7.97;;
62696;SDS011;48761;42.680;23.312;2023-05-24T04:20:37;12.48;;;8.18;;
62696;SDS011;48761;42.680;23.312;2023-05-24T04:23:03;14.73;;;8.55;;
62696;SDS011;48761;42.680;23.312;2023-05-24T04:25:29;16.60;;;8.80;;
62696;SDS011;48761;42.680;23.312;2023-05-24T04:27:55;17.92;;;8.25;;
62696;SDS011;48761;42.680;23.312;2023-05-24T04:30:21;21.63;;;9.60;;
62696;SDS011;48761;42.680;23.312;2023-05-24T04:32:47;18.25;;;9.38;;
62696;SDS011;48761;42.680;23.312;2023-05-24T04:35:13;16.80;;;8.90;;
62696;SDS011;48761;42.680;23.312;2023-05-24T04:37:39;14.20;;;9.63;;
62696;SDS011;48761;42.680;23.312;2023-05-24T04:40:05;13.90;;;8.95;;
62696;SDS011;48761;42.680;23.312;2023-05-24T04:42:32;12.93;;;8.63;;
62696;SDS011;48761;42.680;23.312;2023-05-24T04:44:59;17.27;;;10.60;;
62696;SDS011;48761;42.680;23.312;2023-05-24T04:47:25;14.32;;;9.18;;
62696;SDS011;48761;42.680;23.312;2023-05-24T04:49:51;15.20;;;9.32;;
62696;SDS011;48761;42.680;23.312;2023-05-24T04:52:17;15.50;;;9.07;;
62696;SDS011;48761;42.680;23.312;2023-05-24T04:54:43;14.55;;;9.02;;
62696;SDS011;48761;42.680;23.312;2023-05-24T04:57:09;15.95;;;9.18;;
62696;SDS011;48761;42.680;23.312;2023-05-24T04:59:35;20.05;;;11.18;;
62696;SDS011;48761;42.680;23.312;2023-05-24T05:02:01;14.90;;;9.75;;
62696;SDS011;48761;42.680;23.312;2023-05-24T05:04:27;13.52;;;9.43;;
62696;SDS011;48761;42.680;23.312;2023-05-24T05:06:53;17.02;;;10.55;;
62696;SDS011;48761;42.680;23.312;2023-05-24T05:09:18;20.83;;;14.15;;
62696;SDS011;48761;42.680;23.312;2023-05-24T05:11:45;19.33;;;10.38;;
62696;SDS011;48761;42.680;23.312;2023-05-24T05:14:11;14.52;;;9.48;;
62696;SDS011;48761;42.680;23.312;2023-05-24T05:16:37;17.33;;;10.15;;
62696;SDS011;48761;42.680;23.312;2023-05-24T05:19:04;15.63;;;9.70;;
62696;SDS011;48761;42.680;23.312;2023-05-24T05:21:30;17.25;;;9.70;;
62696;SDS011;48761;42.680;23.312;2023-05-24T05:23:56;13.27;;;8.73;;
62696;SDS011;48761;42.680;23.312;2023-05-24T05:26:22;15.05;;;9.40;;
62696;SDS011;48761;42.680;23.312;2023-05-24T05:28:48;15.30;;;9.23;;
62696;SDS011;48761;42.680;23.312;2023-05-24T05:31:14;15.65;;;9.98;;
62696;SDS011;48761;42.680;23.312;2023-05-24T05:33:40;14.68;;;9.18;;
62696;SDS011;48761;42.680;23.312;2023-05-24T05:36:05;15.40;;;9.30;;
62696;SDS011;48761;42.680;23.312;2023-05-24T05:38:31;15.73;;;9.70;;
62696;SDS011;48761;42.680;23.312;2023-05-24T05:40:57;13.55;;;8.13;;
62696;SDS011;48761;42.680;23.312;2023-05-24T05:43:23;15.90;;;8.98;;
62696;SDS011;48761;42.680;23.312;2023-05-24T05:45:49;17.33;;;10.02;;
62696;SDS011;48761;42.680;23.312;2023-05-24T05:48:15;17.92;;;9.15;;
62696;SDS011;48761;42.680;23.312;2023-05-24T05:50:41;13.50;;;8.95;;
62696;SDS011;48761;42.680;23.312;2023-05-24T05:53:07;12.18;;;8.20;;
62696;SDS011;48761;42.680;23.312;2023-05-24T05:55:33;17.75;;;8.90;;
62696;SDS011;48761;42.680;23.312;2023-05-24T05:57:58;15.75;;;9.50;;
62696;SDS011;48761;42.680;23.312;2023-05-24T06:00:24;14.70;;;8.63;;
62696;SDS011;48761;42.680;23.312;2023-05-24T06:02:50;14.52;;;9.00;;
62696;SDS011;48761;42.680;23.312;2023-05-24T06:05:17;12.88;;;8.55;;
62696;SDS011;48761;42.680;23.312;2023-05-24T06:07:43;11.80;;;8.23;;
62696;SDS011;48761;42.680;23.312;2023-05-24T06:10:09;15.70;;;9.70;;
62696;SDS011;48761;42.680;23.312;2023-05-24T06:12:36;15.60;;;9.55;;
62696;SDS011;48761;42.680;23.312;2023-05-24T06:15:01;14.73;;;8.77;;
62696;SDS011;48761;42.680;23.312;2023-05-24T06:17:27;14.10;;;8.75;;
62696;SDS011;48761;42.680;23.312;2023-05-24T06:19:53;13.52;;;8.13;;
62696;SDS011;48761;42.680;23.312;2023-05-24T06:22:19;11.75;;;8.00;;
62696;SDS011;48761;42.680;23.312;2023-05-24T06:24:45;14.65;;;7.97;;
62696;SDS011;48761;42.680;23.312;2023-05-24T06:27:12;14.23;;;7.82;;
62696;SDS011;48761;42.680;23.312;2023-05-24T06:29:38;14.30;;;9.48;;
62696;SDS011;48761;42.680;23.312;2023-05-24T06:32:05;13.35;;;8.98;;
62696;SDS011;48761;42.680;23.312;2023-05-24T06:34:30;16.65;;;9.30;;
62696;SDS011;48761;42.680;23.312;2023-05-24T06:36:56;19.05;;;8.60;;
62696;SDS011;48761;42.680;23.312;2023-05-24T06:39:22;15.90;;;9.18;;
62696;SDS011;48761;42.680;23.312;2023-05-24T06:41:48;14.35;;;8.90;;
62696;SDS011;48761;42.680;23.312;2023-05-24T06:44:14;14.77;;;8.27;;
62696;SDS011;48761;42.680;23.312;2023-05-24T06:46:40;13.98;;;7.85;;
62696;SDS011;48761;42.680;23.312;2023-05-24T06:49:06;14.05;;;8.02;;
62696;SDS011;48761;42.680;23.312;2023-05-24T06:51:32;14.75;;;7.95;;
62696;SDS011;48761;42.680;23.312;2023-05-24T06:53:58;12.80;;;7.82;;
62696;SDS011;48761;42.680;23.312;2023-05-24T06:56:24;15.55;;;7.60;;
62696;SDS011;48761;42.680;23.312;2023-05-24T06:58:50;13.55;;;7.60;;
62696;SDS011;48761;42.680;23.312;2023-05-24T07:01:16;17.08;;;7.70;;
62696;SDS011;48761;42.680;23.312;2023-05-24T07:03:42;13.30;;;7.93;;
62696;SDS011;48761;42.680;23.312;2023-05-24T07:06:08;13.07;;;7.57;;
62696;SDS011;48761;42.680;23.312;2023-05-24T07:08:34;13.85;;;7.85;;
62696;SDS011;48761;42.680;23.312;2023-05-24T07:11:00;13.95;;;8.20;;
62696;SDS011;48761;42.680;23.312;2023-05-24T07:13:26;12.43;;;7.45;;
62696;SDS011;48761;42.680;23.312;2023-05-24T07:15:52;13.60;;;8.73;;
62696;SDS011;48761;42.680;23.312;2023-05-24T07:18:18;17.17;;;9.20;;
62696;SDS011;48761;42.680;23.312;2023-05-24T07:20:44;17.27;;;8.68;;
62696;SDS011;48761;42.680;23.312;2023-05-24T07:23:10;13.18;;;8.35;;
62696;SDS011;48761;42.680;23.312;2023-05-24T07:25:36;17.17;;;10.65;;
62696;SDS011;48761;42.680;23.312;2023-05-24T07:28:02;17.58;;;10.10;;
62696;SDS011;48761;42.680;23.312;2023-05-24T07:30:27;15.40;;;8.65;;
62696;SDS011;48761;42.680;23.312;2023-05-24T07:32:53;20.27;;;8.48;;
62696;SDS011;48761;42.680;23.312;2023-05-24T07:35:19;13.75;;;7.00;;
62696;SDS011;48761;42.680;23.312;2023-05-24T07:37:46;13.70;;;7.22;;
62696;SDS011;48761;42.680;23.312;2023-05-24T07:40:11;15.30;;;7.45;;
62696;SDS011;48761;42.680;23.312;2023-05-24T07:42:37;18.05;;;10.05;;
62696;SDS011;48761;42.680;23.312;2023-05-24T07:45:05;16.30;;;8.45;;
62696;SDS011;48761;42.680;23.312;2023-05-24T07:47:31;17.92;;;9.52;;
62696;SDS011;48761;42.680;23.312;2023-05-24T07:49:57;15.63;;;8.85;;
62696;SDS011;48761;42.680;23.312;2023-05-24T07:52:23;15.75;;;7.85;;
62696;SDS011;48761;42.680;23.312;2023-05-24T07:54:49;18.42;;;7.43;;
62696;SDS011;48761;42.680;23.312;2023-05-24T07:57:15;12.00;;;7.35;;
62696;SDS011;48761;42.680;23.312;2023-05-24T07:59:41;16.20;;;9.05;;
62696;SDS011;48761;42.680;23.312;2023-05-24T08:02:07;15.52;;;9.00;;
62696;SDS011;48761;42.680;23.312;2023-05-24T08:04:33;16.02;;;8.70;;
62696;SDS011;48761;42.680;23.312;2023-05-24T08:06:59;21.20;;;9.25;;
62696;SDS011;48761;42.680;23.312;2023-05-24T08:09:25;14.25;;;7.60;;
62696;SDS011;48761;42.680;23.312;2023-05-24T08:11:51;12.60;;;7.60;;
62696;SDS011;48761;42.680;23.312;2023-05-24T08:14:17;14.43;;;7.78;;
62696;SDS011;48761;42.680;23.312;2023-05-24T08:16:43;9.35;;;7.03;;
62696;SDS011;48761;42.680;23.312;2023-05-24T08:19:08;11.07;;;6.95;;
62696;SDS011;48761;42.680;23.312;2023-05-24T08:21:34;13.02;;;6.00;;
62696;SDS011;48761;42.680;23.312;2023-05-24T08:24:00;8.88;;;5.40;;
62696;SDS011;48761;42.680;23.312;2023-05-24T08:26:26;10.45;;;5.30;;
62696;SDS011;48761;42.680;23.312;2023-05-24T08:28:52;10.88;;;5.32;;
62696;SDS011;48761;42.680;23.312;2023-05-24T08:31:18;7.57;;;4.47;;
62696;SDS011;48761;42.680;23.312;2023-05-24T08:33:44;11.95;;;4.78;;
62696;SDS011;48761;42.680;23.312;2023-05-24T08:36:10;9.48;;;4.53;;
62696;SDS011;48761;42.680;23.312;2023-05-24T08:38:35;10.02;;;4.93;;
62696;SDS011;48761;42.680;23.312;2023-05-24T08:41:03;11.35;;;5.03;;
62696;SDS011;48761;42.680;23.312;2023-05-24T08:43:30;9.55;;;5.28;;
62696;SDS011;48761;42.680;23.312;2023-05-24T08:45:56;6.90;;;3.90;;
62696;SDS011;48761;42.680;23.312;2023-05-24T08:48:26;8.13;;;3.67;;
62696;SDS011;48761;42.680;23.312;2023-05-24T08:50:53;6.20;;;3.70;;
62696;SDS011;48761;42.680;23.312;2023-05-24T08:53:19;8.20;;;4.20;;
62696;SDS011;48761;42.680;23.312;2023-05-24T08:55:45;9.45;;;4.10;;
62696;SDS011;48761;42.680;23.312;2023-05-24T08:58:14;6.53;;;3.55;;
62696;SDS011;48761;42.680;23.312;2023-05-24T09:00:41;6.13;;;3.42;;
62696;SDS011;48761;42.680;23.312;2023-05-24T09:03:07;11.25;;;4.20;;
62696;SDS011;48761;42.680;23.312;2023-05-24T09:05:35;6.65;;;3.38;;
62696;SDS011;48761;42.680;23.312;2023-05-24T09:08:02;5.13;;;3.90;;
62696;SDS011;48761;42.680;23.312;2023-05-24T09:10:29;7.07;;;4.20;;
62696;SDS011;48761;42.680;23.312;2023-05-24T09:12:57;6.65;;;4.30;;
62696;SDS011;48761;42.680;23.312;2023-05-24T09:15:27;9.75;;;4.10;;
62696;SDS011;48761;42.680;23.312;2023-05-24T09:17:53;7.00;;;4.32;;
62696;SDS011;48761;42.680;23.312;2023-05-24T09:20:19;7.60;;;3.88;;
62696;SDS011;48761;42.680;23.312;2023-05-24T09:22:49;6.18;;;3.85;;
62696;SDS011;48761;42.680;23.312;2023-05-24T09:25:17;5.43;;;3.50;;
62696;SDS011;48761;42.680;23.312;2023-05-24T09:27:47;6.80;;;3.50;;
62696;SDS011;48761;42.680;23.312;2023-05-24T09:30:15;6.82;;;3.17;;
62696;SDS011;48761;42.680;23.312;2023-05-24T09:32:42;5.63;;;3.03;;
62696;SDS011;48761;42.680;23.312;2023-05-24T09:35:19;6.55;;;3.65;;
62696;SDS011;48761;42.680;23.312;2023-05-24T09:37:44;4.75;;;3.47;;
62696;SDS011;48761;42.680;23.312;2023-05-24T09:40:16;6.38;;;3.35;;
62696;SDS011;48761;42.680;23.312;2023-05-24T09:42:43;6.80;;;3.40;;
62696;SDS011;48761;42.680;23.312;2023-05-24T09:45:08;4.70;;;3.10;;
62696;SDS011;48761;42.680;23.312;2023-05-24T09:47:35;4.40;;;3.13;;
62696;SDS011;48761;42.680;23.312;2023-05-24T09:50:03;4.15;;;3.33;;
62696;SDS011;48761;42.680;23.312;2023-05-24T09:52:30;7.20;;;3.45;;
62696;SDS011;48761;42.680;23.312;2023-05-24T09:54:56;5.85;;;3.67;;
62696;SDS011;48761;42.680;23.312;2023-05-24T09:57:22;7.88;;;3.42;;
62696;SDS011;48761;42.680;23.312;2023-05-24T09:59:48;5.57;;;3.33;;
62696;SDS011;48761;42.680;23.312;2023-05-24T10:02:14;5.85;;;3.13;;
62696;SDS011;48761;42.680;23.312;2023-05-24T10:04:40;6.45;;;2.97;;
62696;SDS011;48761;42.680;23.312;2023-05-24T10:07:06;4.32;;;2.80;;
62696;SDS011;48761;42.680;23.312;2023-05-24T10:09:33;7.80;;;2.85;;
62696;SDS011;48761;42.680;23.312;2023-05-24T10:12:03;5.75;;;3.10;;
62696;SDS011;48761;42.680;23.312;2023-05-24T10:14:34;5.37;;;2.90;;
62696;SDS011;48761;42.680;23.312;2023-05-24T10:17:05;4.28;;;2.85;;
62696;SDS011;48761;42.680;23.312;2023-05-24T10:19:31;4.53;;;3.10;;
62696;SDS011;48761;42.680;23.312;2023-05-24T10:22:02;4.13;;;2.90;;
62696;SDS011;48761;42.680;23.312;2023-05-24T10:24:42;8.23;;;3.47;;
62696;SDS011;48761;42.680;23.312;2023-05-24T10:27:15;7.00;;;3.15;;
62696;SDS011;48761;42.680;23.312;2023-05-24T10:32:49;6.95;;;4.15;;
62696;SDS011;48761;42.680;23.312;2023-05-24T10:35:43;5.57;;;3.10;;
62696;SDS011;48761;42.680;23.312;2023-05-24T10:38:21;7.80;;;3.47;;
62696;SDS011;48761;42.680;23.312;2023-05-24T10:40:48;6.68;;;3.22;;
62696;SDS011;48761;42.680;23.312;2023-05-24T10:43:17;7.20;;;4.85;;
62696;SDS011;48761;42.680;23.312;2023-05-24T10:45:46;5.00;;;3.70;;
62696;SDS011;48761;42.680;23.312;2023-05-24T10:50:52;6.75;;;3.45;;
62696;SDS011;48761;42.680;23.312;2023-05-24T10:53:18;5.10;;;3.13;;
62696;SDS011;48761;42.680;23.312;2023-05-24T10:55:57;4.13;;;3.05;;
62696;SDS011;48761;42.680;23.312;2023-05-24T10:58:57;6.50;;;3.47;;
62696;SDS011;48761;42.680;23.312;2023-05-24T11:01:25;5.63;;;3.15;;
62696;SDS011;48761;42.680;23.312;2023-05-24T11:04:14;4.60;;;3.60;;
62696;SDS011;48761;42.680;23.312;2023-05-24T11:07:00;6.07;;;3.40;;
62696;SDS011;48761;42.680;23.312;2023-05-24T11:09:28;7.15;;;3.38;;
62696;SDS011;48761;42.680;23.312;2023-05-24T11:11:55;6.03;;;3.70;;
62696;SDS011;48761;42.680;23.312;2023-05-24T11:14:45;4.82;;;3.40;;
62696;SDS011;48761;42.680;23.312;2023-05-24T11:17:19;7.85;;;3.22;;
62696;SDS011;48761;42.680;23.312;2023-05-24T11:19:49;4.13;;;3.10;;
62696;SDS011;48761;42.680;23.312;2023-05-24T11:22:18;5.90;;;3.10;;
62696;SDS011;48761;42.680;23.312;2023-05-24T11:24:46;4.65;;;3.10;;
62696;SDS011;48761;42.680;23.312;2023-05-24T11:27:12;4.55;;;3.08;;
62696;SDS011;48761;42.680;23.312;2023-05-24T11:29:38;5.85;;;3.00;;
62696;SDS011;48761;42.680;23.312;2023-05-24T11:32:05;6.22;;;3.03;;
62696;SDS011;48761;42.680;23.312;2023-05-24T11:34:31;6.00;;;2.70;;
62696;SDS011;48761;42.680;23.312;2023-05-24T11:36:58;6.07;;;3.00;;
62696;SDS011;48761;42.680;23.312;2023-05-24T11:39:31;6.80;;;2.90;;
62696;SDS011;48761;42.680;23.312;2023-05-24T11:41:58;5.32;;;3.30;;
62696;SDS011;48761;42.680;23.312;2023-05-24T11:44:25;5.32;;;3.20;;
62696;SDS011;48761;42.680;23.312;2023-05-24T11:47:00;4.07;;;2.80;;
62696;SDS011;48761;42.680;23.312;2023-05-24T11:49:26;5.68;;;3.42;;
62696;SDS011;48761;42.680;23.312;2023-05-24T11:51:53;4.78;;;3.10;;
62696;SDS011;48761;42.680;23.312;2023-05-24T11:54:20;5.50;;;3.08;;
62696;SDS011;48761;42.680;23.312;2023-05-24T11:56:47;13.60;;;9.80;;
62696;SDS011;48761;42.680;23.312;2023-05-24T11:59:14;5.90;;;3.30;;
62696;SDS011;48761;42.680;23.312;2023-05-24T12:01:57;5.43;;;2.63;;
62696;SDS011;48761;42.680;23.312;2023-05-24T12:04:28;8.82;;;3.17;;
62696;SDS011;48761;42.680;23.312;2023-05-24T12:06:55;5.63;;;2.50;;
62696;SDS011;48761;42.680;23.312;2023-05-24T12:09:21;4.93;;;3.05;;
62696;SDS011;48761;42.680;23.312;2023-05-24T12:11:48;6.85;;;3.00;;
62696;SDS011;48761;42.680;23.312;2023-05-24T12:14:17;5.00;;;2.92;;
62696;SDS011;48761;42.680;23.312;2023-05-24T12:16:44;6.95;;;2.83;;
62696;SDS011;48761;42.680;23.312;2023-05-24T12:19:20;4.30;;;2.83;;
62696;SDS011;48761;42.680;23.312;2023-05-24T12:21:47;5.32;;;3.28;;
62696;SDS011;48761;42.680;23.312;2023-05-24T12:24:14;4.28;;;2.92;;
62696;SDS011;48761;42.680;23.312;2023-05-24T12:26:45;5.57;;;4.45;;
62696;SDS011;48761;42.680;23.312;2023-05-24T12:29:12;7.50;;;3.90;;
62696;SDS011;48761;42.680;23.312;2023-05-24T12:31:43;7.35;;;3.65;;
62696;SDS011;48761;42.680;23.312;2023-05-24T12:34:12;10.32;;;3.35;;
62696;SDS011;48761;42.680;23.312;2023-05-24T12:36:39;5.65;;;3.50;;
62696;SDS011;48761;42.680;23.312;2023-05-24T12:42:01;3.72;;;3.03;;
62696;SDS011;48761;42.680;23.312;2023-05-24T12:44:34;5.55;;;3.60;;
62696;SDS011;48761;42.680;23.312;2023-05-24T12:47:04;7.88;;;3.40;;
62696;SDS011;48761;42.680;23.312;2023-05-24T12:49:31;5.50;;;3.40;;
62696;SDS011;48761;42.680;23.312;2023-05-24T12:51:57;8.18;;;3.40;;
62696;SDS011;48761;42.680;23.312;2023-05-24T12:54:24;6.40;;;4.50;;
62696;SDS011;48761;42.680;23.312;2023-05-24T12:56:51;5.43;;;3.65;;
62696;SDS011;48761;42.680;23.312;2023-05-24T12:59:18;5.47;;;3.17;;
62696;SDS011;48761;42.680;23.312;2023-05-24T13:01:44;7.45;;;3.08;;
62696;SDS011;48761;42.680;23.312;2023-05-24T13:04:10;8.13;;;3.38;;
62696;SDS011;48761;42.680;23.312;2023-05-24T13:06:36;6.25;;;2.97;;
62696;SDS011;48761;42.680;23.312;2023-05-24T13:09:02;5.70;;;2.90;;
62696;SDS011;48761;42.680;23.312;2023-05-24T13:11:28;5.18;;;3.30;;
62696;SDS011;48761;42.680;23.312;2023-05-24T13:13:54;5.32;;;3.00;;
62696;SDS011;48761;42.680;23.312;2023-05-24T13:16:20;7.60;;;3.22;;
62696;SDS011;48761;42.680;23.312;2023-05-24T13:18:46;5.18;;;3.30;;
62696;SDS011;48761;42.680;23.312;2023-05-24T13:21:12;5.05;;;3.20;;
62696;SDS011;48761;42.680;23.312;2023-05-24T13:23:38;6.25;;;3.20;;
62696;SDS011;48761;42.680;23.312;2023-05-24T13:26:04;5.78;;;3.20;;
62696;SDS011;48761;42.680;23.312;2023-05-24T13:28:30;6.25;;;3.40;;
62696;SDS011;48761;42.680;23.312;2023-05-24T13:30:56;5.95;;;3.22;;
62696;SDS011;48761;42.680;23.312;2023-05-24T13:33:22;7.18;;;3.58;;
62696;SDS011;48761;42.680;23.312;2023-05-24T13:35:48;6.97;;;3.70;;
62696;SDS011;48761;42.680;23.312;2023-05-24T13:38:14;4.85;;;3.40;;
62696;SDS011;48761;42.680;23.312;2023-05-24T13:40:41;6.53;;;3.70;;
62696;SDS011;48761;42.680;23.312;2023-05-24T13:43:07;5.70;;;3.60;;
62696;SDS011;48761;42.680;23.312;2023-05-24T13:45:33;7.25;;;3.33;;
62696;SDS011;48761;42.680;23.312;2023-05-24T13:47:59;8.90;;;3.83;;
62696;SDS011;48761;42.680;23.312;2023-05-24T13:50:25;5.82;;;3.55;;
62696;SDS011;48761;42.680;23.312;2023-05-24T13:52:51;5.03;;;2.90;;
62696;SDS011;48761;42.680;23.312;2023-05-24T13:55:17;10.32;;;5.43;;
62696;SDS011;48761;42.680;23.312;2023-05-24T13:57:43;6.95;;;4.38;;
62696;SDS011;48761;42.680;23.312;2023-05-24T14:00:09;8.25;;;3.70;;
62696;SDS011;48761;42.680;23.312;2023-05-24T14:02:35;7.95;;;3.95;;
62696;SDS011;48761;42.680;23.312;2023-05-24T14:05:01;6.18;;;3.72;;
62696;SDS011;48761;42.680;23.312;2023-05-24T14:07:27;5.75;;;3.75;;
62696;SDS011;48761;42.680;23.312;2023-05-24T14:09:53;6.28;;;4.07;;
62696;SDS011;48761;42.680;23.312;2023-05-24T14:12:19;9.70;;;4.05;;
62696;SDS011;48761;42.680;23.312;2023-05-24T14:14:45;7.05;;;3.65;;
62696;SDS011;48761;42.680;23.312;2023-05-24T14:17:11;8.23;;;4.35;;
62696;SDS011;48761;42.680;23.312;2023-05-24T14:19:37;6.38;;;3.95;;
62696;SDS011;48761;42.680;23.312;2023-05-24T14:22:03;9.07;;;3.80;;
62696;SDS011;48761;42.680;23.312;2023-05-24T14:24:29;11.35;;;6.20;;
62696;SDS011;48761;42.680;23.312;2023-05-24T14:26:55;7.22;;;4.40;;
62696;SDS011;48761;42.680;23.312;2023-05-24T14:29:20;9.73;;;4.32;;
62696;SDS011;48761;42.680;23.312;2023-05-24T14:31:46;7.35;;;4.32;;
62696;SDS011;48761;42.680;23.312;2023-05-24T14:34:12;7.68;;;4.43;;
62696;SDS011;48761;42.680;23.312;2023-05-24T14:36:38;7.45;;;4.80;;
62696;SDS011;48761;42.680;23.312;2023-05-24T14:39:04;9.60;;;4.60;;
62696;SDS011;48761;42.680;23.312;2023-05-24T14:41:31;9.18;;;4.03;;
62696;SDS011;48761;42.680;23.312;2023-05-24T14:43:57;7.28;;;4.50;;
62696;SDS011;48761;42.680;23.312;2023-05-24T14:46:23;7.20;;;4.53;;
62696;SDS011;48761;42.680;23.312;2023-05-24T14:48:49;10.25;;;4.95;;
62696;SDS011;48761;42.680;23.312;2023-05-24T14:51:14;6.43;;;3.75;;